Mahoning, Pennsylvania
Current Conditions -  °F | °C
As of 3:34 PM on Wednesday 26 Nov 2014 (Local Time) from KSEG Reporting Station
Light Snow Light Snow  
Wind Chill: 27°   Ceiling: 800
Heat Index: 33°   Visibility: 1mi
Dew Point: 31°   Wind: 7mph
Humidity: 92%   Direction: 350°N
Pressure: 29.98"   Gusts: NA
Location:  41.0117°N, 76.6578°W
Report Text: KSEG 262034Z AUTO 35006KT 1SM -SN BR BKN008 OVC015 01/M01 A2998 RMK AO2 P0002 T00061006
Loading
Personal Weather Stations






























Interactive Weather Map New forecast layout! Learn more

10-Day Weather Forecast

Advertisements
Track Severe Weather on mobile